Time;durP1;ratioP1;P1;durP2;ratioP2;P2;SDS_P1;SDS_P2;PMS_P1;PMS_P2;Temp;Humidity;BMP_temperature;BMP_pressure;BME280_temperature;BME280_humidity;BME280_pressure;Samples;Min_cycle;Max_cycle;Signal;HPM_P1;HPM_P2
2022/07/11 00:01:15;;;;;;;4.05;3.75;;;;;;;18.42;94.05;98972.11;1677335;84;21057;-70
2022/07/11 00:03:43;;;;;;;4.28;3.70;;;;;;;18.41;93.87;98970.52;1727846;83;21529;-69
2022/07/11 00:06:10;;;;;;;4.95;3.87;;;;;;;18.40;93.80;98964.83;1715425;83;21556;-72
2022/07/11 00:08:37;;;;;;;12.70;6.37;;;;;;;18.36;93.83;98963.31;1701471;83;21240;-71
2022/07/11 00:11:05;;;;;;;4.10;3.75;;;;;;;18.32;93.86;98958.83;1687092;84;21009;-77
2022/07/11 00:13:32;;;;;;;5.00;3.22;;;;;;;18.29;94.01;98963.78;1706402;83;21102;-81
2022/07/11 00:15:59;;;;;;;4.45;3.75;;;;;;;18.27;94.26;98976.12;1673169;84;21007;-79
2022/07/11 00:18:27;;;;;;;3.30;3.00;;;;;;;18.24;94.69;98965.29;1687433;84;21060;-82
2022/07/11 00:20:55;;;;;;;4.20;3.90;;;;;;;18.23;95.03;98963.67;1676910;83;21557;-82
2022/07/11 00:23:22;;;;;;;3.33;3.12;;;;;;;18.23;95.29;98969.12;1703539;82;21007;-84
2022/07/11 00:25:48;;;;;;;3.35;3.05;;;;;;;18.24;95.50;98960.40;1686756;84;21562;-79
2022/07/11 00:28:17;;;;;;;4.78;3.70;;;;;;;18.26;95.54;98958.17;1672583;85;21000;-88
2022/07/11 00:30:45;;;;;;;4.03;3.72;;;;;;;18.27;95.61;98952.39;1702454;84;20985;-85
2022/07/11 00:33:11;;;;;;;4.30;3.22;;;;;;;18.26;95.69;98948.64;1688099;84;21637;-83
2022/07/11 00:35:40;;;;;;;5.95;4.00;;;;;;;18.22;95.92;98954.48;1688169;85;21001;-83
2022/07/11 00:38:07;;;;;;;5.40;3.25;;;;;;;18.19;96.27;98949.66;1687493;84;21020;-85
2022/07/11 00:40:34;;;;;;;2.60;2.40;;;;;;;18.17;96.66;98957.36;1704041;82;21005;-82
2022/07/11 00:43:06;;;;;;;2.72;2.52;;;;;;;18.15;96.99;98956.30;1688442;84;21037;-82
2022/07/11 00:45:33;;;;;;;4.78;3.83;;;;;;;18.15;97.10;98954.95;1688255;83;21239;-83
2022/07/11 00:48:00;;;;;;;3.65;3.35;;;;;;;18.17;97.18;98957.36;1703633;83;21072;-82
2022/07/11 00:50:27;;;;;;;3.77;3.58;;;;;;;18.18;97.19;98954.86;1703150;82;21094;-82
2022/07/11 00:52:53;;;;;;;3.47;3.17;;;;;;;18.18;97.08;98950.77;1682917;83;21077;-79
2022/07/11 00:55:20;;;;;;;4.12;3.00;;;;;;;18.19;97.07;98949.11;1693699;82;21047;-82
2022/07/11 00:57:47;;;;;;;5.20;4.05;;;;;;;18.19;96.92;98948.30;1713486;82;21297;-82
2022/07/11 01:00:14;;;;;;;3.33;3.10;;;;;;;18.17;96.85;98952.72;1704495;82;21023;-84
2022/07/11 01:02:41;;;;;;;3.20;3.00;;;;;;;18.16;96.87;98948.95;1684455;84;20994;-87
2022/07/11 01:05:08;;;;;;;3.50;3.20;;;;;;;18.14;96.97;98947.89;1694833;84;21155;-89
2022/07/11 01:07:35;;;;;;;3.62;3.00;;;;;;;18.14;97.01;98949.25;1701459;84;21008;-87
2022/07/11 01:10:01;;;;;;;3.65;3.45;;;;;;;18.18;96.95;98946.69;1695712;84;21200;-84
2022/07/11 01:12:28;;;;;;;3.17;2.83;;;;;;;18.20;96.77;98939.02;1667482;82;20998;-88
2022/07/11 01:14:59;;;;;;;4.42;3.37;;;;;;;18.21;96.61;98935.19;1697523;84;21533;-88
2022/07/11 01:17:24;;;;;;;3.20;2.85;;;;;;;18.24;96.47;98927.73;1709955;83;21052;-85
2022/07/11 01:19:52;;;;;;;4.00;3.27;;;;;;;18.22;96.35;98933.48;1728042;83;21121;-83
2022/07/11 01:22:21;;;;;;;3.85;2.95;;;;;;;18.20;96.28;98934.38;1685486;84;21245;-86
2022/07/11 01:24:48;;;;;;;3.12;2.90;;;;;;;18.18;96.26;98939.33;1710440;83;20980;-84
2022/07/11 01:27:15;;;;;;;3.65;3.35;;;;;;;18.15;96.30;98936.45;1695716;83;21009;-88
2022/07/11 01:29:43;;;;;;;4.25;3.85;;;;;;;18.12;96.46;98935.18;1689674;83;21154;-84
2022/07/11 01:32:10;;;;;;;2.70;2.40;;;;;;;18.12;96.54;98933.81;1691668;82;21034;-85
2022/07/11 01:34:36;;;;;;;3.10;2.75;;;;;;;18.11;96.59;98929.48;1697702;84;21272;-84
2022/07/11 01:37:04;;;;;;;5.05;2.87;;;;;;;18.11;96.64;98925.41;1694599;84;21124;-87
2022/07/11 01:39:31;;;;;;;3.60;3.15;;;;;;;18.12;96.63;98920.77;1694533;82;21083;-84
2022/07/11 01:41:58;;;;;;;2.83;2.60;;;;;;;18.14;96.55;98930.76;1697106;83;21018;-85
2022/07/11 01:44:25;;;;;;;3.20;2.92;;;;;;;18.12;96.44;98922.94;1697000;83;21581;-76
2022/07/11 01:46:52;;;;;;;4.33;3.67;;;;;;;18.10;96.47;98927.88;1688670;84;21265;-80
2022/07/11 01:49:19;;;;;;;5.00;2.85;;;;;;;18.06;96.48;98922.03;1711977;83;20971;-82
2022/07/11 01:51:45;;;;;;;2.72;2.52;;;;;;;18.03;96.66;98922.12;1709022;83;21031;-82
2022/07/11 01:54:12;;;;;;;9.23;3.40;;;;;;;18.02;96.85;98916.43;1710318;83;21144;-81
2022/07/11 01:56:38;;;;;;;8.78;3.33;;;;;;;17.99;96.87;98909.44;1710803;83;21016;-81
2022/07/11 01:59:07;;;;;;;3.25;2.95;;;;;;;17.98;97.02;98916.02;1683397;84;20977;-80
2022/07/11 02:01:34;;;;;;;2.75;2.55;;;;;;;17.98;97.09;98917.38;1711518;82;20932;-81
2022/07/11 02:04:01;;;;;;;3.15;2.95;;;;;;;17.97;97.05;98917.94;1697412;84;21486;-81
2022/07/11 02:06:28;;;;;;;5.42;2.62;;;;;;;17.96;97.11;98928.58;1695179;83;20996;-81
2022/07/11 02:08:58;;;;;;;5.10;2.65;;;;;;;17.93;97.20;98929.22;1697288;84;21104;-81
2022/07/11 02:11:25;;;;;;;2.25;2.12;;;;;;;17.90;97.27;98923.03;1716098;82;21161;-82
2022/07/11 02:13:53;;;;;;;4.10;2.80;;;;;;;17.85;97.90;98932.70;1710298;83;20992;-81
2022/07/11 02:16:19;;;;;;;6.67;2.87;;;;;;;17.78;98.02;98916.86;1708995;83;20989;-79
2022/07/11 02:18:46;;;;;;;3.67;2.25;;;;;;;17.78;98.36;98918.22;1684267;84;21100;-79
2022/07/11 02:21:13;;;;;;;2.52;2.33;;;;;;;17.77;98.40;98923.96;1723224;83;21052;-81
2022/07/11 02:23:40;;;;;;;3.20;2.20;;;;;;;17.76;98.45;98927.23;1710946;82;21313;-80
2022/07/11 02:26:07;;;;;;;2.45;2.25;;;;;;;17.79;98.58;98926.59;1708833;83;20937;-77
2022/07/11 02:28:34;;;;;;;4.00;2.35;;;;;;;17.79;98.56;98921.16;1709698;83;21077;-79
2022/07/11 02:31:01;;;;;;;3.77;3.40;;;;;;;17.81;98.54;98922.20;1710707;82;21027;-79
2022/07/11 02:33:27;;;;;;;2.98;2.77;;;;;;;17.80;98.48;98918.69;1710589;83;21019;-79
2022/07/11 02:35:55;;;;;;;7.65;4.55;;;;;;;17.79;98.59;98921.16;1696644;83;21963;-81
2022/07/11 02:38:21;;;;;;;3.30;2.72;;;;;;;17.76;98.82;98922.35;1710080;83;21050;-79
2022/07/11 02:40:48;;;;;;;5.05;1.95;;;;;;;17.71;99.09;98925.22;1714481;82;21552;-80
2022/07/11 02:43:16;;;;;;;2.70;2.50;;;;;;;17.62;100.00;98921.11;1697455;84;21069;-79
2022/07/11 02:45:42;;;;;;;4.00;2.55;;;;;;;17.60;100.00;98919.84;1711380;82;21521;-81
2022/07/11 02:48:09;;;;;;;5.22;2.35;;;;;;;17.61;100.00;98920.06;1709092;83;21152;-79
2022/07/11 02:50:36;;;;;;;2.47;2.27;;;;;;;17.59;100.00;98925.83;1708771;83;20939;-79
2022/07/11 02:53:02;;;;;;;2.62;2.45;;;;;;;17.63;100.00;98917.84;1710669;83;21552;-80
2022/07/11 02:55:31;;;;;;;5.55;2.87;;;;;;;17.69;100.00;98926.11;1710575;82;21067;-79
2022/07/11 02:57:57;;;;;;;2.33;2.15;;;;;;;17.73;100.00;98926.52;1697490;84;21116;-80
2022/07/11 03:00:24;;;;;;;2.83;2.60;;;;;;;17.76;100.00;98923.71;1697076;83;21221;-79
2022/07/11 03:02:51;;;;;;;3.17;2.37;;;;;;;17.78;100.00;98923.66;1711176;82;21026;-80
2022/07/11 03:05:17;;;;;;;2.75;2.55;;;;;;;17.82;100.00;98920.55;1710502;83;20963;-79
2022/07/11 03:07:44;;;;;;;3.62;3.08;;;;;;;17.86;100.00;98923.42;1709657;83;21449;-80
2022/07/11 03:10:11;;;;;;;4.72;2.52;;;;;;;17.86;99.87;98931.59;1696542;83;21049;-80
2022/07/11 03:12:38;;;;;;;3.90;3.08;;;;;;;17.87;99.91;98926.39;1711570;82;21357;-84
2022/07/11 03:15:06;;;;;;;3.17;2.98;;;;;;;17.87;99.92;98923.67;1696753;83;21472;-80
2022/07/11 03:17:36;;;;;;;3.42;2.15;;;;;;;17.89;99.85;98927.45;1648289;84;21549;-80
2022/07/11 03:20:05;;;;;;;9.88;2.65;;;;;;;17.88;99.92;98932.09;1675267;84;21081;-80
2022/07/11 03:22:32;;;;;;;3.15;2.95;;;;;;;17.89;100.00;98935.02;1710614;83;21044;-80
2022/07/11 03:25:05;;;;;;;2.75;2.55;;;;;;;17.92;100.00;98935.77;1696153;83;21554;-81
2022/07/11 03:27:28;;;;;;;2.47;2.30;;;;;;;17.96;100.00;98942.73;1695810;84;21024;-80
2022/07/11 03:29:56;;;;;;;5.20;2.47;;;;;;;17.98;99.94;98948.12;1710055;82;22461;-80
2022/07/11 03:32:22;;;;;;;4.83;2.85;;;;;;;18.03;99.88;98944.45;1710038;83;21020;-88
2022/07/11 03:37:36;;;;;;;3.50;3.05;;;;;;;18.03;99.57;98943.09;1698220;84;22192;-81
2022/07/11 03:40:07;;;;;;;2.87;2.67;;;;;;;18.01;99.54;98936.59;1701293;84;21589;-84
2022/07/11 03:42:34;;;;;;;3.37;3.10;;;;;;;18.02;99.66;98940.92;1683771;84;21541;-80
2022/07/11 03:45:01;;;;;;;3.37;2.55;;;;;;;18.04;99.76;98939.22;1694569;84;21018;-80
2022/07/11 03:47:28;;;;;;;2.50;2.30;;;;;;;18.08;99.83;98937.50;1675436;85;21524;-82
2022/07/11 03:49:55;;;;;;;3.55;2.92;;;;;;;18.11;99.67;98936.85;1697508;84;21229;-79
2022/07/11 03:52:22;;;;;;;3.47;3.17;;;;;;;18.12;99.58;98932.46;1713606;83;21039;-83
2022/07/11 03:54:48;;;;;;;2.45;2.25;;;;;;;18.16;99.59;98933.98;1710000;83;21051;-81
2022/07/11 03:57:17;;;;;;;3.08;2.60;;;;;;;18.18;99.31;98939.89;1689433;83;21555;-80
2022/07/11 03:59:44;;;;;;;2.70;2.50;;;;;;;18.16;99.21;98930.70;1671570;84;20997;-79
2022/07/11 04:02:11;;;;;;;4.30;2.90;;;;;;;18.17;99.26;98929.59;1697336;84;21144;-83
2022/07/11 04:04:38;;;;;;;3.17;2.98;;;;;;;18.17;99.05;98935.59;1697072;84;20957;-82
2022/07/11 04:07:05;;;;;;;3.15;2.95;;;;;;;18.16;99.07;98929.89;1695848;83;21551;-79
2022/07/11 04:09:32;;;;;;;3.05;2.55;;;;;;;18.16;99.13;98929.89;1673161;85;21156;-81
2022/07/11 04:11:59;;;;;;;7.95;2.72;;;;;;;18.17;99.22;98931.50;1702280;83;21080;-80
2022/07/11 04:14:26;;;;;;;2.95;2.75;;;;;;;18.18;99.18;98931.72;1686701;84;21902;-79
2022/07/11 04:16:53;;;;;;;2.87;2.52;;;;;;;18.18;99.24;98924.36;1675212;84;21077;-82
2022/07/11 04:19:20;;;;;;;3.87;3.58;;;;;;;18.22;99.21;98934.84;1688014;84;20926;-81
2022/07/11 04:21:47;;;;;;;4.08;2.92;;;;;;;18.25;99.02;98930.70;1701980;83;21048;-81
2022/07/11 04:24:16;;;;;;;4.80;2.77;;;;;;;18.26;98.82;98926.31;1688161;85;20993;-79
2022/07/11 04:26:42;;;;;;;6.60;2.92;;;;;;;18.27;98.69;98933.34;1689998;84;21197;-81
2022/07/11 04:29:09;;;;;;;3.55;3.25;;;;;;;18.28;98.48;98933.58;1698670;84;20972;-78
2022/07/11 04:31:36;;;;;;;3.98;3.55;;;;;;;18.27;98.23;98931.97;1698351;84;22245;-78
2022/07/11 04:34:03;;;;;;;3.12;2.40;;;;;;;18.28;98.22;98936.30;1697416;84;21033;-79
2022/07/11 04:36:30;;;;;;;4.03;2.92;;;;;;;18.32;98.21;98941.13;1683544;84;21009;-78
2022/07/11 04:38:56;;;;;;;2.50;2.33;;;;;;;18.32;97.56;98938.41;1683780;85;21091;-78
2022/07/11 04:41:23;;;;;;;2.50;2.30;;;;;;;18.35;97.64;98938.56;1684712;84;21534;-80
2022/07/11 04:43:49;;;;;;;2.25;2.15;;;;;;;18.41;97.57;98936.49;1688039;84;20973;-79
2022/07/11 04:46:16;;;;;;;3.05;2.75;;;;;;;18.47;97.19;98936.00;1682253;85;21059;-77
2022/07/11 04:48:44;;;;;;;2.80;2.60;;;;;;;18.51;96.58;98935.59;1684934;84;21488;-79
2022/07/11 04:51:11;;;;;;;7.67;2.58;;;;;;;18.57;96.14;98939.80;1683613;84;21270;-80
2022/07/11 04:53:39;;;;;;;3.50;2.65;;;;;;;18.59;95.07;98945.73;1683628;84;21069;-79
2022/07/11 04:56:07;;;;;;;2.75;2.55;;;;;;;18.61;94.93;98935.86;1683957;84;21554;-80
2022/07/11 04:58:34;;;;;;;2.65;2.45;;;;;;;18.65;94.67;98939.57;1679233;85;21506;-83
2022/07/11 05:01:00;;;;;;;2.72;2.52;;;;;;;18.66;94.30;98936.51;1685261;84;21101;-83
2022/07/11 05:03:27;;;;;;;2.67;2.33;;;;;;;18.70;94.30;98932.02;1686357;84;22104;-84
2022/07/11 05:05:54;;;;;;;6.90;2.75;;;;;;;18.73;93.96;98934.11;1699039;83;20956;-85
2022/07/11 05:08:21;;;;;;;4.92;3.02;;;;;;;18.76;93.88;98937.30;1696222;83;21028;-82
2022/07/11 05:10:48;;;;;;;2.60;2.40;;;;;;;18.79;93.95;98931.23;1689590;83;21072;-81
2022/07/11 05:13:16;;;;;;;10.30;4.30;;;;;;;18.85;93.91;98937.53;1685927;83;21663;-79
2022/07/11 05:15:44;;;;;;;4.15;3.60;;;;;;;18.93;93.93;98940.83;1703838;82;21230;-78
2022/07/11 05:18:14;;;;;;;3.45;3.15;;;;;;;19.02;93.59;98933.99;1702242;84;20929;-78
2022/07/11 05:20:41;;;;;;;3.10;2.80;;;;;;;19.06;93.18;98934.94;1703525;83;21008;-79
2022/07/11 05:23:09;;;;;;;3.65;2.42;;;;;;;19.13;92.77;98950.25;1703760;84;21043;-76
2022/07/11 05:25:37;;;;;;;3.17;2.95;;;;;;;19.17;92.54;98936.20;1703826;82;21466;-76
2022/07/11 05:28:05;;;;;;;3.25;2.30;;;;;;;19.24;92.14;98931.60;1688017;84;21232;-80
2022/07/11 05:30:31;;;;;;;3.62;2.20;;;;;;;19.28;91.61;98944.25;1689663;84;21516;-80
2022/07/11 05:33:00;;;;;;;4.17;2.65;;;;;;;19.30;90.92;98946.11;1686490;84;21033;-80
2022/07/11 05:35:27;;;;;;;3.50;2.55;;;;;;;19.33;90.78;98948.77;1688747;82;21524;-78
2022/07/11 05:37:55;;;;;;;3.30;3.00;;;;;;;19.34;90.21;98944.89;1660276;85;21036;-77
2022/07/11 05:40:22;;;;;;;3.20;2.75;;;;;;;19.35;90.06;98937.75;1712333;83;21148;-83
2022/07/11 05:42:49;;;;;;;2.37;2.27;;;;;;;19.37;89.94;98938.80;1718521;83;20905;-84
2022/07/11 05:45:15;;;;;;;4.33;2.25;;;;;;;19.38;89.25;98945.83;1718908;82;21059;-79
2022/07/11 05:47:44;;;;;;;3.10;2.77;;;;;;;19.37;88.76;98938.24;1702525;82;20999;-80
2022/07/11 05:50:10;;;;;;;3.12;2.83;;;;;;;19.38;88.53;98940.38;1686448;84;21081;-83
2022/07/11 05:52:37;;;;;;;2.65;2.47;;;;;;;19.40;87.46;98940.86;1687260;84;21148;-79
2022/07/11 05:55:06;;;;;;;2.77;2.47;;;;;;;19.42;87.29;98938.06;1718272;82;21518;-78
2022/07/11 05:57:33;;;;;;;3.30;2.83;;;;;;;19.42;87.29;98938.06;1704749;82;21541;-77
2022/07/11 05:59:59;;;;;;;2.20;2.10;;;;;;;19.43;86.96;98938.28;1701856;84;21072;-76
2022/07/11 06:02:27;;;;;;;4.50;2.72;;;;;;;19.44;86.65;98938.55;1689091;84;21580;-79
2022/07/11 06:04:54;;;;;;;2.85;2.62;;;;;;;19.48;86.45;98938.69;1660855;85;22035;-79
2022/07/11 06:10:08;;;;;;;2.80;2.45;;;;;;;19.55;85.64;98932.18;1705081;82;21384;-84
2022/07/11 06:12:36;;;;;;;3.30;3.10;;;;;;;19.54;85.06;98938.20;1704390;82;21557;-77
2022/07/11 06:15:04;;;;;;;2.58;2.37;;;;;;;19.54;85.06;98938.20;1688239;84;21065;-75
2022/07/11 06:17:32;;;;;;;4.87;2.47;;;;;;;19.54;85.35;98940.13;1673346;85;21227;-78
2022/07/11 06:19:59;;;;;;;4.55;3.00;;;;;;;19.52;85.39;98941.80;1674156;85;21067;-79
2022/07/11 06:22:26;;;;;;;2.67;2.47;;;;;;;19.51;84.82;98935.33;1669645;84;21708;-80
2022/07/11 06:24:53;;;;;;;8.60;2.77;;;;;;;19.52;84.96;98943.73;1703892;83;21110;-79
2022/07/11 06:27:20;;;;;;;3.58;3.37;;;;;;;19.50;84.74;98934.53;1703768;82;21020;-77
2022/07/11 06:29:47;;;;;;;2.50;2.30;;;;;;;19.51;84.47;98932.05;1703747;84;21124;-81
2022/07/11 06:32:14;;;;;;;5.60;2.62;;;;;;;19.52;84.59;98934.18;1686631;83;21073;-82
2022/07/11 06:34:42;;;;;;;2.55;2.35;;;;;;;19.56;84.67;98946.06;1688049;84;21005;-83
2022/07/11 06:37:09;;;;;;;3.00;2.80;;;;;;;19.59;84.26;98935.29;1706553;82;21040;-83
2022/07/11 06:39:37;;;;;;;3.52;3.27;;;;;;;19.65;84.10;98946.02;1702048;83;21529;-86
2022/07/11 06:42:04;;;;;;;2.65;2.45;;;;;;;19.67;83.70;98933.64;1703822;83;21054;-84
2022/07/11 06:44:31;;;;;;;5.35;3.15;;;;;;;19.72;83.74;98929.36;1686073;84;21424;-86
2022/07/11 06:46:58;;;;;;;3.45;2.72;;;;;;;19.76;83.45;98948.04;1702692;84;21074;-87
2022/07/11 06:49:25;;;;;;;3.72;3.33;;;;;;;19.85;83.11;98937.11;1701824;83;21006;-85
2022/07/11 06:51:52;;;;;;;6.60;3.17;;;;;;;19.85;83.11;98937.11;1702086;84;21528;-81
2022/07/11 06:54:18;;;;;;;7.70;3.12;;;;;;;19.89;82.75;98940.21;1688799;84;21279;-83
2022/07/11 06:56:47;;;;;;;3.50;2.83;;;;;;;19.92;82.34;98947.73;1682142;85;21061;-83
2022/07/11 06:59:13;;;;;;;3.42;2.72;;;;;;;19.96;82.19;98931.48;1706358;83;21095;-82
2022/07/11 07:01:43;;;;;;;3.25;2.95;;;;;;;19.96;82.07;98949.23;1716923;82;21044;-85
2022/07/11 07:04:09;;;;;;;2.83;2.62;;;;;;;19.94;81.58;98950.14;1710850;82;21005;-85
2022/07/11 07:06:36;;;;;;;3.27;2.92;;;;;;;19.98;81.67;98943.69;1723033;82;21061;-84
2022/07/11 07:09:03;;;;;;;3.17;2.65;;;;;;;20.06;81.61;98933.03;1690908;84;20953;-85
2022/07/11 07:11:32;;;;;;;5.05;2.62;;;;;;;20.13;81.24;98938.78;1710825;82;20916;-85
2022/07/11 07:13:59;;;;;;;3.35;3.05;;;;;;;20.18;80.22;98940.77;1710962;83;20996;-83
2022/07/11 07:16:29;;;;;;;3.08;2.83;;;;;;;20.17;79.86;98930.16;1697289;83;21010;-83
2022/07/11 07:18:55;;;;;;;3.80;3.50;;;;;;;20.16;79.42;98948.47;1706425;84;21264;-84
2022/07/11 07:21:22;;;;;;;3.40;2.80;;;;;;;20.20;78.40;98934.95;1693375;83;20995;-84
2022/07/11 07:23:49;;;;;;;4.12;2.75;;;;;;;20.39;79.01;98929.30;1653558;86;20983;-81
2022/07/11 07:26:16;;;;;;;3.45;3.00;;;;;;;20.39;79.01;98929.30;1690610;84;22229;-84
2022/07/11 07:28:45;;;;;;;8.55;2.58;;;;;;;20.49;78.84;98920.47;1710979;83;21087;-84
2022/07/11 07:31:12;;;;;;;5.22;2.52;;;;;;;20.56;77.96;98927.58;1709716;82;21228;-81
2022/07/11 07:33:39;;;;;;;4.00;2.37;;;;;;;20.64;76.22;98945.83;1708990;82;21012;-78
2022/07/11 07:36:06;;;;;;;3.42;2.27;;;;;;;20.72;76.74;98944.38;1699862;84;21013;-79
2022/07/11 07:38:35;;;;;;;2.80;2.47;;;;;;;20.81;75.82;98960.72;1711864;83;21016;-79
2022/07/11 07:41:03;;;;;;;3.30;2.40;;;;;;;20.87;75.62;98962.09;1713621;83;21544;-76
2022/07/11 07:43:30;;;;;;;2.40;2.22;;;;;;;20.89;74.52;98953.80;1710941;83;20988;-74
2022/07/11 07:45:57;;;;;;;4.80;2.20;;;;;;;20.89;74.10;98966.67;1697789;84;20974;-77
2022/07/11 07:48:24;;;;;;;2.50;2.02;;;;;;;20.89;74.00;98957.91;1706744;82;21056;-76
2022/07/11 07:50:54;;;;;;;4.08;2.60;;;;;;;20.89;74.18;98956.54;1709383;83;20983;-81
2022/07/11 07:53:21;;;;;;;2.58;2.10;;;;;;;20.87;73.08;98953.33;1689063;84;21052;-79
2022/07/11 07:55:49;;;;;;;2.08;1.98;;;;;;;20.89;73.37;98956.54;1710476;83;21126;-79
2022/07/11 07:58:16;;;;;;;3.75;2.90;;;;;;;20.94;72.75;98963.73;1698915;84;21494;-81
2022/07/11 08:03:30;;;;;;;2.20;2.00;;;;;;;20.96;71.55;98973.75;1712186;83;20970;-79
2022/07/11 08:06:00;;;;;;;4.65;2.70;;;;;;;20.97;71.74;98964.98;1706560;83;21128;-77
2022/07/11 08:08:27;;;;;;;6.53;2.60;;;;;;;21.00;72.04;98961.59;1688200;84;22124;-77
2022/07/11 08:10:54;;;;;;;5.42;3.08;;;;;;;21.06;71.74;98961.59;1685135;83;21074;-76
2022/07/11 08:13:21;;;;;;;20.55;7.87;;;;;;;21.14;71.28;98958.83;1702499;82;21505;-77
2022/07/11 08:15:49;;;;;;;6.30;3.10;;;;;;;21.21;70.65;98959.06;1680709;83;21009;-78
2022/07/11 08:18:16;;;;;;;2.67;2.08;;;;;;;21.27;70.12;98960.45;1718891;83;21029;-78
2022/07/11 08:20:44;;;;;;;5.33;3.33;;;;;;;21.29;68.93;98959.53;1706380;83;21125;-76
2022/07/11 08:23:12;;;;;;;2.75;2.55;;;;;;;21.25;68.88;98955.88;1671428;84;21049;-74
2022/07/11 08:25:41;;;;;;;1.82;1.72;;;;;;;21.24;68.74;98965.25;1733068;82;20945;-73
2022/07/11 08:28:07;;;;;;;2.62;1.90;;;;;;;21.24;68.30;98963.08;1731633;82;21067;-79
2022/07/11 08:30:35;;;;;;;3.60;2.47;;;;;;;21.27;68.56;98960.45;1688262;85;21080;-75
2022/07/11 08:33:03;;;;;;;6.80;2.42;;;;;;;21.31;68.14;98958.64;1684368;83;21112;-75
2022/07/11 08:35:31;;;;;;;4.03;2.77;;;;;;;21.30;67.39;98954.30;1682011;83;21381;-74
2022/07/11 08:37:57;;;;;;;2.60;2.15;;;;;;;21.35;67.52;98956.02;1703606;84;21217;-75
2022/07/11 08:40:26;;;;;;;2.72;2.52;;;;;;;21.39;67.38;98954.20;1687860;84;21073;-72
2022/07/11 08:42:52;;;;;;;2.92;2.20;;;;;;;21.41;67.50;98959.34;1703663;82;21035;-77
2022/07/11 08:45:19;;;;;;;2.12;1.92;;;;;;;21.42;67.41;98957.64;1686424;83;21772;-77
2022/07/11 08:47:46;;;;;;;5.97;2.92;;;;;;;21.45;67.32;98949.31;1703320;84;21083;-76
2022/07/11 08:50:13;;;;;;;2.35;2.15;;;;;;;21.42;65.54;98975.42;1703554;83;21003;-78
2022/07/11 08:52:44;;;;;;;4.08;2.30;;;;;;;21.42;64.56;98958.20;1703688;83;21041;-76
2022/07/11 08:55:11;;;;;;;4.33;1.72;;;;;;;21.42;64.99;98965.84;1678699;83;21572;-76
2022/07/11 08:57:38;;;;;;;2.15;1.85;;;;;;;21.45;64.01;98961.62;1702040;83;22248;-78
2022/07/11 09:00:08;;;;;;;1.80;1.70;;;;;;;21.51;63.81;98972.59;1675045;85;21540;-76
2022/07/11 09:02:36;;;;;;;5.53;2.77;;;;;;;21.55;63.10;98974.87;1679702;84;21014;-76
2022/07/11 09:05:08;;;;;;;3.42;1.90;;;;;;;21.58;63.00;98961.30;1662770;85;21065;-75
2022/07/11 09:07:38;;;;;;;1.92;1.70;;;;;;;21.60;63.01;98976.82;1673815;83;21053;-78
2022/07/11 09:10:07;;;;;;;2.50;1.55;;;;;;;21.67;63.24;98956.55;1706409;83;21138;-79
2022/07/11 09:12:34;;;;;;;2.50;2.00;;;;;;;21.77;62.35;98964.08;1695376;83;21485;-71
2022/07/11 09:15:01;;;;;;;2.05;1.80;;;;;;;21.82;61.81;98966.03;1706351;82;21031;-69
2022/07/11 09:17:32;;;;;;;2.20;1.80;;;;;;;21.86;60.92;98966.13;1692949;84;21042;-69
2022/07/11 09:19:59;;;;;;;3.08;1.67;;;;;;;21.88;59.61;98942.73;1682038;84;21009;-68
2022/07/11 09:25:24;;;;;;;3.10;1.67;;;;;;;21.96;60.82;98954.19;1696546;83;21015;-74
2022/07/11 09:27:56;;;;;;;3.37;2.05;;;;;;;22.02;60.68;98952.80;1694924;84;21079;-76
2022/07/11 09:30:26;;;;;;;1.70;1.40;;;;;;;22.12;60.35;98963.86;1709054;83;21028;-74
2022/07/11 09:33:05;;;;;;;3.65;1.45;;;;;;;22.22;60.01;98958.48;1697558;84;21550;-69
2022/07/11 09:35:38;;;;;;;2.02;1.77;;;;;;;22.32;59.30;98955.28;1709841;82;21152;-69
2022/07/11 09:38:07;;;;;;;1.62;1.47;;;;;;;22.40;59.47;98972.15;1669480;86;24977;-68
2022/07/11 09:40:35;;;;;;;2.12;1.55;;;;;;;22.40;56.79;98961.19;1710407;83;21646;-69
2022/07/11 09:43:03;;;;;;;1.70;1.60;;;;;;;22.39;56.78;98970.01;1684168;84;21039;-70
2022/07/11 09:45:32;;;;;;;2.05;1.47;;;;;;;22.39;56.31;98952.77;1710158;83;20984;-69
2022/07/11 09:48:02;;;;;;;1.60;1.50;;;;;;;22.35;57.04;98951.27;1709436;83;21325;-69
2022/07/11 09:50:30;;;;;;;1.45;1.35;;;;;;;22.33;56.45;98932.22;1696323;84;21097;-69
2022/07/11 09:53:11;;;;;;;1.82;1.30;;;;;;;22.31;56.16;98935.87;1681732;84;21124;-72
2022/07/11 09:55:41;;;;;;;2.92;1.95;;;;;;;22.28;53.77;98927.78;1705583;83;21033;-70
2022/07/11 09:58:11;;;;;;;3.92;1.50;;;;;;;22.26;53.03;98947.86;1712087;82;21059;-70
2022/07/11 10:00:39;;;;;;;1.10;1.00;;;;;;;22.25;53.32;98937.27;1697235;84;21138;-73
2022/07/11 10:03:08;;;;;;;2.25;1.55;;;;;;;22.21;51.64;98937.14;1710484;83;21098;-71
2022/07/11 10:05:35;;;;;;;4.30;1.30;;;;;;;22.21;52.11;98948.09;1710331;82;21000;-75
2022/07/11 10:08:04;;;;;;;1.25;1.15;;;;;;;22.30;52.28;98938.41;1696990;84;21084;-77
2022/07/11 10:10:33;;;;;;;2.37;1.12;;;;;;;22.38;52.15;98950.59;1698220;84;21633;-73
2022/07/11 10:13:00;;;;;;;4.08;1.40;;;;;;;22.46;51.56;98940.06;1727717;82;21597;-71
2022/07/11 10:15:35;;;;;;;4.55;1.67;;;;;;;22.54;50.65;98932.87;1719474;83;20959;-73
2022/07/11 10:18:17;;;;;;;3.00;1.50;;;;;;;22.55;51.03;98934.44;1710484;83;21512;-74
2022/07/11 10:21:10;;;;;;;5.37;1.80;;;;;;;22.60;51.75;98925.97;1709745;83;21000;-71
2022/07/11 10:23:55;;;;;;;2.95;1.90;;;;;;;22.60;52.07;98935.00;1652570;86;21031;-70
2022/07/11 10:26:48;;;;;;;1.30;1.20;;;;;;;22.69;52.29;98935.41;1669341;85;21132;-73
2022/07/11 10:29:19;;;;;;;1.62;1.30;;;;;;;22.76;52.10;98924.70;1703740;83;21104;-73
2022/07/11 10:32:07;;;;;;;2.10;1.65;;;;;;;22.87;52.61;98924.43;1680654;84;21087;-74
2022/07/11 10:34:37;;;;;;;2.47;1.70;;;;;;;23.04;52.59;98930.39;1695688;84;21108;-91
2022/07/11 10:37:05;;;;;;;2.67;2.08;;;;;;;23.16;52.08;98915.83;1695736;84;21027;-71
2022/07/11 10:39:36;;;;;;;1.45;1.32;;;;;;;23.23;51.11;98923.43;1666367;84;39036;-71
2022/07/11 10:42:06;;;;;;;2.50;1.50;;;;;;;23.30;51.28;98922.25;1705025;84;20990;-71
2022/07/11 10:44:54;;;;;;;5.10;1.60;;;;;;;23.34;51.41;98913.53;1696770;84;20909;-75
2022/07/11 10:47:44;;;;;;;3.27;1.85;;;;;;;23.37;49.70;98926.54;1709077;83;21124;-79
2022/07/11 10:50:32;;;;;;;1.45;1.35;;;;;;;23.35;50.38;98916.51;1721930;82;21028;-79
2022/07/11 10:52:59;;;;;;;1.77;1.22;;;;;;;23.36;49.26;98922.99;1675771;85;21782;-80
2022/07/11 10:55:44;;;;;;;2.10;1.45;;;;;;;23.46;48.74;98936.23;1701727;84;20977;-73
2022/07/11 10:58:29;;;;;;;1.52;1.37;;;;;;;23.51;48.61;98934.37;1719606;82;21003;-72
2022/07/11 11:01:12;;;;;;;2.33;1.85;;;;;;;23.60;49.18;98922.62;1695772;84;21065;-73
2022/07/11 11:03:39;;;;;;;4.17;1.55;;;;;;;23.62;46.34;98924.45;1695902;84;21049;-74
2022/07/11 11:06:06;;;;;;;4.70;1.17;;;;;;;23.47;46.31;98912.32;1705124;84;21147;-72
2022/07/11 11:08:46;;;;;;;3.35;1.95;;;;;;;23.45;47.06;98923.65;1705930;83;20989;-81
2022/07/11 11:11:35;;;;;;;2.17;0.88;;;;;;;23.40;46.33;98940.34;1703130;83;21073;-81
2022/07/11 11:14:27;;;;;;;1.45;1.27;;;;;;;23.32;46.93;98933.09;1682319;83;21580;-70
2022/07/11 11:16:54;;;;;;;1.27;1.00;;;;;;;23.29;47.14;98925.57;1647558;86;21001;-72
2022/07/11 11:19:50;;;;;;;1.52;1.40;;;;;;;23.26;46.94;98920.77;1697736;84;21187;-71
2022/07/11 11:22:19;;;;;;;6.35;1.60;;;;;;;23.31;47.31;98930.72;1698764;84;20951;-70
2022/07/11 11:24:49;;;;;;;2.02;1.50;;;;;;;23.40;47.40;98921.13;1697513;84;21060;-72
2022/07/11 11:27:23;;;;;;;3.22;1.82;;;;;;;23.45;47.49;98926.99;1677710;84;21131;-71
2022/07/11 11:29:54;;;;;;;2.37;1.10;;;;;;;23.42;46.60;98933.94;1700183;83;21508;-73
2022/07/11 11:32:24;;;;;;;2.45;1.30;;;;;;;23.33;46.83;98942.92;1696994;84;21148;-72
2022/07/11 11:34:52;;;;;;;5.10;1.45;;;;;;;23.28;46.75;98945.92;1696762;84;21007;-69
2022/07/11 11:37:19;;;;;;;1.42;1.32;;;;;;;23.24;46.92;98942.30;1698239;84;21100;-71
2022/07/11 11:39:46;;;;;;;4.45;1.95;;;;;;;23.17;46.76;98928.94;1703752;83;20997;-70
2022/07/11 11:42:16;;;;;;;3.05;1.72;;;;;;;23.13;47.10;98925.31;1701715;83;21014;-72
2022/07/11 11:44:53;;;;;;;3.30;1.57;;;;;;;23.13;46.86;98941.77;1703750;84;21857;-71
2022/07/11 11:47:19;;;;;;;1.57;1.37;;;;;;;23.18;46.73;98947.80;1695403;84;20945;-70
2022/07/11 11:49:47;;;;;;;5.10;1.98;;;;;;;23.23;47.26;98935.77;1698878;84;21350;-69
2022/07/11 11:52:14;;;;;;;2.60;2.25;;;;;;;23.30;49.77;98945.58;1693965;84;21561;-70